PWSweather.com
Personal Weather Stations
Station Observations
KTXNEWBR92
New Braunfels, TX

New Braunfels, TX

Lat: 29.722, Lon: -98.17

Elevation: 850

Station Type:

High Low Average
Temperature 85.6°F29.8°F 80.1°F26.7°F 82.5°F28.1°F
Dew Point 67.8°F19.9°F 66.2°F19.0°F 67.3°F19.6°F
Winds 8.1 mph -13.0 mph - Calm Calm 2.3 mph 3.7 mph
Wind Gusts 9.8 mph15.8 mph -- 3.8 mph6.1 mph
Humidity 66% 53% 60%
Pressure 29.82 in1009.80 in 29.76 in1007.80 in -
Precipitation 0.00 in0.00 in - -
Hour Temp Dew Point Humidity Winds Wind Gusts Pressure Precip Precip Rate Daily Precip Total
09:24 PM 85.6°F29.8°C 66.6°F19.2°C 53% 2.5 mph E4.0 kmh E 4.9 mph7.9 kmh 29.76 in1007.8 mb 0.00 in0.0 mm 0.00 in0.0 mm 0.00 in0.0 mm
09:29 PM 85.3°F29.6°C 66.2°F19.0°C 53% Calm Calm -- 29.76 in1007.8 mb 0.00 in0.0 mm 0.00 in0.0 mm 0.00 in0.0 mm
09:34 PM 85.1°F29.5°C 66.6°F19.2°C 54% 4.0 mph E6.4 kmh E 7.4 mph11.9 kmh 29.76 in1007.8 mb 0.00 in0.0 mm 0.00 in0.0 mm 0.00 in0.0 mm
09:40 PM 84.9°F29.4°C 67.1°F19.5°C 55% 1.1 mph ESE1.8 kmh ESE 2.5 mph4.0 kmh 29.76 in1007.8 mb 0.00 in0.0 mm 0.00 in0.0 mm 0.00 in0.0 mm
09:44 PM 84.7°F29.3°C 66.9°F19.4°C 55% Calm Calm -- 29.77 in1008.1 mb 0.00 in0.0 mm 0.00 in0.0 mm 0.00 in0.0 mm
09:49 PM 84.6°F29.2°C 67.3°F19.6°C 56% 0.4 mph E0.6 kmh E 2.5 mph4.0 kmh 29.76 in1007.8 mb 0.00 in0.0 mm 0.00 in0.0 mm 0.00 in0.0 mm
09:54 PM 84.2°F29.0°C 66.9°F19.4°C 56% 2.0 mph S3.2 kmh S 2.5 mph4.0 kmh 29.76 in1007.8 mb 0.00 in0.0 mm 0.00 in0.0 mm 0.00 in0.0 mm
09:59 PM 84.0°F28.9°C 67.3°F19.6°C 57% 4.3 mph ESE6.9 kmh ESE 4.9 mph7.9 kmh 29.77 in1008.1 mb 0.00 in0.0 mm 0.00 in0.0 mm 0.00 in0.0 mm
10:04 PM 83.8°F28.8°C 67.1°F19.5°C 57% 1.8 mph SE2.9 kmh SE 2.5 mph4.0 kmh 29.76 in1007.8 mb 0.00 in0.0 mm 0.00 in0.0 mm 0.00 in0.0 mm
10:10 PM 83.7°F28.7°C 67.5°F19.7°C 58% 4.0 mph E6.4 kmh E 4.9 mph7.9 kmh 29.77 in1008.1 mb 0.00 in0.0 mm 0.00 in0.0 mm 0.00 in0.0 mm
10:14 PM 83.5°F28.6°C 67.6°F19.8°C 59% 5.8 mph SE9.3 kmh SE 7.4 mph11.9 kmh 29.77 in1008.1 mb 0.00 in0.0 mm 0.00 in0.0 mm 0.00 in0.0 mm
10:19 PM 83.1°F28.4°C 67.8°F19.9°C 60% 0.2 mph ENE0.3 kmh ENE 2.5 mph4.0 kmh 29.78 in1008.5 mb 0.00 in0.0 mm 0.00 in0.0 mm 0.00 in0.0 mm
10:23 PM 83.1°F28.4°C 67.8°F19.9°C 60% 4.0 mph E6.4 kmh E 7.4 mph11.9 kmh 29.78 in1008.5 mb 0.00 in0.0 mm 0.00 in0.0 mm 0.00 in0.0 mm
10:30 PM 82.2°F27.9°C 66.9°F19.4°C 60% 1.8 mph E2.9 kmh E 2.5 mph4.0 kmh 29.78 in1008.5 mb 0.00 in0.0 mm 0.00 in0.0 mm 0.00 in0.0 mm
10:34 PM 82.2°F27.9°C 67.5°F19.7°C 61% 1.3 mph ENE2.1 kmh ENE 2.5 mph4.0 kmh 29.78 in1008.5 mb 0.00 in0.0 mm 0.00 in0.0 mm 0.00 in0.0 mm
10:39 PM 82.2°F27.9°C 67.5°F19.7°C 61% Calm Calm -- 29.79 in1008.8 mb 0.00 in0.0 mm 0.00 in0.0 mm 0.00 in0.0 mm
10:44 PM 82.0°F27.8°C 67.8°F19.9°C 62% 4.9 mph SE7.9 kmh SE 7.4 mph11.9 kmh 29.78 in1008.5 mb 0.00 in0.0 mm 0.00 in0.0 mm 0.00 in0.0 mm
10:49 PM 81.9°F27.7°C 67.6°F19.8°C 62% 0.2 mph ENE0.3 kmh ENE 2.5 mph4.0 kmh 29.79 in1008.8 mb 0.00 in0.0 mm 0.00 in0.0 mm 0.00 in0.0 mm
10:54 PM 81.9°F27.7°C 67.6°F19.8°C 62% 4.3 mph ENE6.9 kmh ENE 7.4 mph11.9 kmh 29.79 in1008.8 mb 0.00 in0.0 mm 0.00 in0.0 mm 0.00 in0.0 mm
10:59 PM 81.5°F27.5°C 67.3°F19.6°C 62% 3.6 mph E5.8 kmh E 4.9 mph7.9 kmh 29.80 in1009.1 mb 0.00 in0.0 mm 0.00 in0.0 mm 0.00 in0.0 mm
11:04 PM 81.3°F27.4°C 67.6°F19.8°C 63% 0.9 mph SSE1.4 kmh SSE 2.5 mph4.0 kmh 29.80 in1009.1 mb 0.00 in0.0 mm 0.00 in0.0 mm 0.00 in0.0 mm
11:09 PM 81.1°F27.3°C 66.9°F19.4°C 62% 5.6 mph SE9.0 kmh SE 7.4 mph11.9 kmh 29.80 in1009.1 mb 0.00 in0.0 mm 0.00 in0.0 mm 0.00 in0.0 mm
11:14 PM 81.1°F27.3°C 66.9°F19.4°C 62% 2.0 mph ESE3.2 kmh ESE 2.5 mph4.0 kmh 29.80 in1009.1 mb 0.00 in0.0 mm 0.00 in0.0 mm 0.00 in0.0 mm
11:19 PM 81.0°F27.2°C 67.3°F19.6°C 63% 2.9 mph E4.7 kmh E 4.9 mph7.9 kmh 29.80 in1009.1 mb 0.00 in0.0 mm 0.00 in0.0 mm 0.00 in0.0 mm
11:24 PM 80.8°F27.1°C 67.1°F19.5°C 63% 0.2 mph E0.3 kmh E 2.5 mph4.0 kmh 29.80 in1009.1 mb 0.00 in0.0 mm 0.00 in0.0 mm 0.00 in0.0 mm
11:29 PM 80.6°F27.0°C 66.9°F19.4°C 63% Calm Calm -- 29.81 in1009.5 mb 0.00 in0.0 mm 0.00 in0.0 mm 0.00 in0.0 mm
11:34 PM 80.4°F26.9°C 67.1°F19.5°C 64% 1.3 mph E2.1 kmh E 2.5 mph4.0 kmh 29.82 in1009.8 mb 0.00 in0.0 mm 0.00 in0.0 mm 0.00 in0.0 mm
11:39 PM 80.4°F26.9°C 67.6°F19.8°C 65% 1.8 mph E2.9 kmh E 4.9 mph7.9 kmh 29.81 in1009.5 mb 0.00 in0.0 mm 0.00 in0.0 mm 0.00 in0.0 mm
11:44 PM 80.2°F26.8°C 67.5°F19.7°C 65% 8.1 mph E13.0 kmh E 9.8 mph15.8 kmh 29.81 in1009.5 mb 0.00 in0.0 mm 0.00 in0.0 mm 0.00 in0.0 mm
11:49 PM 80.1°F26.7°C 67.8°F19.9°C 66% 0.4 mph SE0.6 kmh SE 2.5 mph4.0 kmh 29.82 in1009.8 mb 0.00 in0.0 mm 0.00 in0.0 mm 0.00 in0.0 mm
11:54 PM 80.1°F26.7°C 67.8°F19.9°C 66% 1.3 mph ESE2.1 kmh ESE 2.5 mph4.0 kmh 29.82 in1009.8 mb 0.00 in0.0 mm 0.00 in0.0 mm 0.00 in0.0 mm